EHGR/GLZ METAR and TAF weather

Enter ICAO airport designator
Station Type Date Time Source
EHGR METAR 2019/12/08 13:55 UTC NOAA

EHGR 081355Z AUTO 25013G25KT 210V290 9999 SCT026 SCT030 11/06 Q1000 BLU


Station Type Date Time Source
EHGR Decoded METAR 2019/12/08 13:55 UTC NOAA

Gilze-Rijen, Netherlands (EHGR) 51-34N 004-56E 24M
Dec 08, 2019 - 08:55 AM EST / 2019.12.08 1355 UTC
Wind: from the WSW (250 degrees) at 15 MPH (13 KT) gusting to 29 MPH (25 KT) (direction variable):0
Visibility: greater than 7 mile(s):0
Sky conditions: partly cloudy
Temperature: 51 F (11 C)
Dew Point: 42 F (6 C)
Relative Humidity: 71%
Pressure (altimeter): 29.53 in. Hg (1000 hPa)
ob: EHGR 081355Z AUTO 25013G25KT 210V290 9999 SCT026 SCT030 11/06 Q1000 BLU
cycle: 14

Station Type Date Time Source
EHGR TAF 2019/12/06 10:00 UTC NOAA

TAF TAF EHGR 060913Z 0610/0622 21012KT 8000 BKN007 OVC010 PROB30
TEMPO 0606/0618 22017G27KT 2500 DZRA SCT004 OVC007
TEMPO 0610/0618 SCT012 BKN017
BECMG 0618/0621 SCT015 BKN020
TEMPO 0621/0622 22017G32KT 4500 -SHRA SCT010 BKN015 SCT022CB PROB30
TEMPO 0621/0622 3000 SHRA TSRA BKN012 SCT018CB

Example: see airport list